createdAt,value
2018-07-13T00:00:30.829Z,1.93
2018-07-13T00:02:58.647Z,2.53
2018-07-13T00:05:26.205Z,3.50
2018-07-13T00:07:53.837Z,2.47
2018-07-13T00:10:21.417Z,2.00
2018-07-13T00:12:49.066Z,1.70
2018-07-13T00:15:16.663Z,1.80
2018-07-13T00:17:44.330Z,1.90
2018-07-13T00:20:11.884Z,1.70
2018-07-13T00:22:39.556Z,2.17
2018-07-13T00:25:07.199Z,2.00
2018-07-13T00:27:34.806Z,2.00
2018-07-13T00:30:02.457Z,2.50
2018-07-13T00:32:30.243Z,1.90
2018-07-13T00:34:57.920Z,1.60
2018-07-13T00:37:25.541Z,1.90
2018-07-13T00:39:53.192Z,1.80
2018-07-13T00:42:20.986Z,2.20
2018-07-13T00:44:48.573Z,1.90
2018-07-13T00:47:16.145Z,2.30
2018-07-13T00:49:43.756Z,2.50
2018-07-13T00:52:11.374Z,1.70
2018-07-13T00:54:39.189Z,1.83
2018-07-13T00:57:06.817Z,1.87
2018-07-13T00:59:34.329Z,1.90
2018-07-13T01:02:01.942Z,1.80
2018-07-13T01:04:29.483Z,1.80
2018-07-13T01:06:57.022Z,1.73
2018-07-13T01:09:24.583Z,1.60
2018-07-13T01:11:52.086Z,1.73
2018-07-13T01:14:19.638Z,2.10
2018-07-13T01:16:47.158Z,1.60
2018-07-13T01:19:14.751Z,3.43
2018-07-13T01:21:42.319Z,1.90
2018-07-13T01:24:09.845Z,2.00
2018-07-13T01:26:37.414Z,1.77
2018-07-13T01:29:05.181Z,1.87
2018-07-13T01:31:32.750Z,2.00
2018-07-13T01:34:00.315Z,2.07
2018-07-13T01:36:27.855Z,2.83
2018-07-13T01:38:55.393Z,3.00
2018-07-13T01:41:22.903Z,1.80
2018-07-13T01:43:50.487Z,2.10
2018-07-13T01:46:18.058Z,2.00
2018-07-13T01:48:45.551Z,2.30
2018-07-13T01:51:13.070Z,1.90
2018-07-13T01:53:40.634Z,1.77
2018-07-13T01:56:08.176Z,2.00
2018-07-13T01:58:35.718Z,1.70
2018-07-13T02:01:03.502Z,1.60
2018-07-13T02:03:31.083Z,2.03
2018-07-13T02:05:58.625Z,1.70
2018-07-13T02:08:26.174Z,1.80
2018-07-13T02:10:53.720Z,1.50
2018-07-13T02:13:21.268Z,1.80
2018-07-13T02:15:48.777Z,2.13
2018-07-13T02:18:16.298Z,2.00
2018-07-13T02:20:43.798Z,1.57
2018-07-13T02:23:11.348Z,2.10
2018-07-13T02:25:38.870Z,1.47
2018-07-13T02:28:06.472Z,1.73
2018-07-13T02:30:33.988Z,1.53
2018-07-13T02:33:01.683Z,1.90
2018-07-13T02:35:29.178Z,1.70
2018-07-13T02:37:56.700Z,1.57
2018-07-13T02:40:24.178Z,1.30
2018-07-13T02:42:51.742Z,1.90
2018-07-13T02:45:19.255Z,1.83
2018-07-13T02:47:46.808Z,2.10
2018-07-13T02:50:14.384Z,1.77
2018-07-13T02:52:41.935Z,1.60
2018-07-13T02:55:09.517Z,1.97
2018-07-13T02:57:37.078Z,2.40
2018-07-13T03:00:04.667Z,2.53
2018-07-13T03:02:32.294Z,2.10
2018-07-13T03:04:59.876Z,2.10
2018-07-13T03:07:27.472Z,1.97
2018-07-13T03:09:55.047Z,1.70
2018-07-13T03:12:22.686Z,2.17
2018-07-13T03:14:50.252Z,1.60
2018-07-13T03:17:17.848Z,2.27
2018-07-13T03:19:45.467Z,1.60
2018-07-13T03:22:13.047Z,1.90
2018-07-13T03:24:40.593Z,2.00
2018-07-13T03:27:08.249Z,2.40
2018-07-13T03:29:35.859Z,1.70
2018-07-13T03:32:03.524Z,2.30
2018-07-13T03:34:31.079Z,1.63
2018-07-13T03:36:59.126Z,1.77
2018-07-13T03:39:26.671Z,1.40
2018-07-13T03:41:54.220Z,1.33
2018-07-13T03:44:21.767Z,1.23
2018-07-13T03:46:49.313Z,1.70
2018-07-13T03:49:16.856Z,1.53
2018-07-13T03:51:44.430Z,1.80
2018-07-13T03:54:12.076Z,1.73
2018-07-13T03:56:39.584Z,1.50
2018-07-13T03:59:07.199Z,2.20
2018-07-13T04:01:34.759Z,2.13
2018-07-13T04:04:02.831Z,1.93
2018-07-13T04:06:30.553Z,2.50
2018-07-13T04:08:58.136Z,2.63
2018-07-13T04:11:25.829Z,2.00
2018-07-13T04:13:53.383Z,1.60
2018-07-13T04:16:21.110Z,1.53
2018-07-13T04:18:48.798Z,1.77
2018-07-13T04:21:16.500Z,1.40
2018-07-13T04:23:44.124Z,1.70
2018-07-13T04:26:11.818Z,2.50
2018-07-13T04:28:39.443Z,1.80
2018-07-13T04:31:07.136Z,2.30
2018-07-13T04:33:34.715Z,2.30
2018-07-13T04:36:02.295Z,1.90
2018-07-13T04:38:29.846Z,1.63
2018-07-13T04:40:57.687Z,1.57
2018-07-13T04:43:29.268Z,1.43
2018-07-13T04:45:56.896Z,1.60
2018-07-13T04:48:24.547Z,1.97
2018-07-13T04:50:52.234Z,1.30
2018-07-13T04:53:19.961Z,1.70
2018-07-13T04:55:47.636Z,2.13
2018-07-13T04:58:15.251Z,1.83
2018-07-13T05:00:42.993Z,1.70
2018-07-13T05:03:10.584Z,2.50
2018-07-13T05:05:38.215Z,2.60
2018-07-13T05:08:05.856Z,1.97
2018-07-13T05:10:33.473Z,2.50
2018-07-13T05:13:01.064Z,3.53
2018-07-13T05:15:28.667Z,4.47
2018-07-13T05:17:57.283Z,4.47
2018-07-13T05:20:25.264Z,4.67
2018-07-13T05:22:52.883Z,4.40
2018-07-13T05:25:20.528Z,5.00
2018-07-13T05:27:48.155Z,5.30
2018-07-13T05:30:15.877Z,4.13
2018-07-13T05:32:43.633Z,3.43
2018-07-13T05:35:11.367Z,4.30
2018-07-13T05:37:38.992Z,4.83
2018-07-13T05:40:06.626Z,4.37
2018-07-13T05:42:34.307Z,4.93
2018-07-13T05:45:02.005Z,3.80
2018-07-13T05:47:29.768Z,4.70
2018-07-13T05:49:57.584Z,3.70
2018-07-13T05:52:25.225Z,5.00
2018-07-13T05:54:52.951Z,4.53
2018-07-13T05:57:20.582Z,4.70
2018-07-13T05:59:48.196Z,3.00
2018-07-13T06:02:15.803Z,3.97
2018-07-13T06:04:43.439Z,4.27
2018-07-13T06:07:11.140Z,4.43
2018-07-13T06:09:38.930Z,4.23
2018-07-13T06:12:07.284Z,4.37
2018-07-13T06:14:34.859Z,4.30
2018-07-13T06:17:02.399Z,4.63
2018-07-13T06:19:30.029Z,4.17
2018-07-13T06:21:57.667Z,4.20
2018-07-13T06:24:25.288Z,4.00
2018-07-13T06:26:52.888Z,3.43
2018-07-13T06:29:20.448Z,3.83
2018-07-13T06:31:48.016Z,3.73
2018-07-13T06:34:15.646Z,3.00
2018-07-13T06:36:43.273Z,3.40
2018-07-13T06:39:11.938Z,3.40
2018-07-13T06:41:39.594Z,3.93
2018-07-13T06:44:07.341Z,3.00
2018-07-13T06:46:35.679Z,3.60
2018-07-13T06:49:03.300Z,3.30
2018-07-13T06:51:30.936Z,3.90
2018-07-13T06:53:58.604Z,3.10
2018-07-13T06:56:26.349Z,3.90
2018-07-13T06:59:12.464Z,3.60
2018-07-13T07:01:40.417Z,3.50
2018-07-13T07:04:29.364Z,3.90
2018-07-13T07:06:58.448Z,2.80
2018-07-13T07:09:26.822Z,3.50
2018-07-13T07:12:04.821Z,2.93
2018-07-13T07:14:32.653Z,3.13
2018-07-13T07:17:00.385Z,2.60
2018-07-13T07:19:28.145Z,3.00
2018-07-13T07:21:55.836Z,3.20
2018-07-13T07:24:23.632Z,3.00
2018-07-13T07:26:51.332Z,3.10
2018-07-13T07:29:19.064Z,2.40
2018-07-13T07:31:46.891Z,2.67
2018-07-13T07:34:14.756Z,3.03
2018-07-13T07:36:42.511Z,3.30
2018-07-13T07:39:11.605Z,3.50
2018-07-13T07:41:39.770Z,3.27
2018-07-13T07:44:07.672Z,3.80
2018-07-13T07:46:35.829Z,3.37
2018-07-13T07:49:03.521Z,3.20
2018-07-13T07:51:31.675Z,3.10
2018-07-13T07:53:59.588Z,2.67
2018-07-13T07:56:27.645Z,2.53
2018-07-13T07:58:55.537Z,2.20
2018-07-13T08:01:23.647Z,3.13
2018-07-13T08:03:51.482Z,2.67
2018-07-13T08:06:19.481Z,2.47
2018-07-13T08:08:47.144Z,2.53
2018-07-13T08:11:15.133Z,2.90
2018-07-13T08:13:43.140Z,3.10
2018-07-13T08:16:10.956Z,2.67
2018-07-13T08:18:38.765Z,2.83
2018-07-13T08:21:06.674Z,2.93
2018-07-13T08:23:34.437Z,2.93
2018-07-13T08:26:02.555Z,2.63
2018-07-13T08:28:31.792Z,2.63
2018-07-13T08:31:02.184Z,2.60
2018-07-13T08:33:29.986Z,3.10
2018-07-13T08:35:57.781Z,3.30
2018-07-13T08:38:25.588Z,3.33
2018-07-13T08:40:53.401Z,2.70
2018-07-13T08:43:21.268Z,3.23
2018-07-13T08:45:49.043Z,3.47
2018-07-13T08:48:17.029Z,3.00
2018-07-13T08:50:44.848Z,2.65
2018-07-13T08:53:12.680Z,2.47
2018-07-13T08:55:40.343Z,3.00
2018-07-13T08:58:08.001Z,2.85
2018-07-13T09:00:35.651Z,2.55
2018-07-13T09:03:03.287Z,3.10
2018-07-13T09:05:30.859Z,2.60
2018-07-13T09:07:58.493Z,2.60
2018-07-13T09:10:26.118Z,2.60
2018-07-13T09:12:53.818Z,2.50
2018-07-13T09:15:21.452Z,2.70
2018-07-13T09:17:49.024Z,2.80
2018-07-13T09:20:16.595Z,2.27
2018-07-13T09:22:44.276Z,2.17
2018-07-13T09:25:12.165Z,2.40
2018-07-13T09:27:41.147Z,2.27
2018-07-13T09:30:09.878Z,2.40
2018-07-13T09:32:37.676Z,2.87
2018-07-13T09:35:05.264Z,2.52
2018-07-13T09:37:33.308Z,2.72
2018-07-13T09:40:01.067Z,2.58
2018-07-13T09:42:28.673Z,2.75
2018-07-13T09:44:56.288Z,2.80
2018-07-13T09:47:23.840Z,2.65
2018-07-13T09:49:51.367Z,2.40
2018-07-13T09:52:19.105Z,2.52
2018-07-13T09:54:46.871Z,2.70
2018-07-13T09:57:14.447Z,3.10
2018-07-13T09:59:42.245Z,2.50
2018-07-13T10:02:09.929Z,2.50
2018-07-13T10:04:37.544Z,2.20
2018-07-13T10:07:05.532Z,2.52
2018-07-13T10:09:33.164Z,2.62
2018-07-13T10:12:00.844Z,3.10
2018-07-13T10:14:28.513Z,2.20
2018-07-13T10:16:56.135Z,2.35
2018-07-13T10:19:23.770Z,2.60
2018-07-13T10:21:51.915Z,2.20
2018-07-13T10:24:20.329Z,2.98
2018-07-13T10:26:47.939Z,2.25
2018-07-13T10:29:21.489Z,2.47
2018-07-13T10:31:49.631Z,2.47
2018-07-13T10:34:18.767Z,2.37
2018-07-13T10:36:50.664Z,2.30
2018-07-13T10:39:18.231Z,2.15
2018-07-13T10:41:45.880Z,2.20
2018-07-13T10:44:13.472Z,2.80
2018-07-13T10:46:41.176Z,2.50
2018-07-13T10:49:08.770Z,2.80
2018-07-13T10:51:36.453Z,2.80
2018-07-13T10:54:03.965Z,2.80
2018-07-13T10:56:45.195Z,2.55
2018-07-13T10:59:13.971Z,2.20
2018-07-13T11:01:41.536Z,2.45
2018-07-13T11:04:12.312Z,2.98
2018-07-13T11:06:39.850Z,2.22
2018-07-13T11:09:08.038Z,2.27
2018-07-13T11:11:36.029Z,2.60
2018-07-13T11:14:03.720Z,2.37
2018-07-13T11:16:34.679Z,2.40
2018-07-13T11:19:02.229Z,2.10
2018-07-13T11:21:29.797Z,1.92
2018-07-13T11:23:57.498Z,2.00
2018-07-13T11:26:25.199Z,2.00
2018-07-13T11:28:52.944Z,2.12
2018-07-13T11:31:20.544Z,2.40
2018-07-13T11:33:48.109Z,1.60
2018-07-13T11:36:15.887Z,1.87
2018-07-13T11:38:43.450Z,1.75
2018-07-13T11:41:11.028Z,2.12
2018-07-13T11:43:38.537Z,2.10
2018-07-13T11:46:06.116Z,2.40
2018-07-13T11:48:33.643Z,2.22
2018-07-13T11:51:01.419Z,2.47
2018-07-13T11:53:28.935Z,2.33
2018-07-13T11:55:56.719Z,2.30
2018-07-13T11:58:24.286Z,2.20
2018-07-13T12:00:51.848Z,2.40
2018-07-13T12:03:19.393Z,2.15
2018-07-13T12:05:46.948Z,2.50
2018-07-13T12:08:14.512Z,2.20
2018-07-13T12:10:42.079Z,2.42
2018-07-13T12:13:09.685Z,2.30
2018-07-13T12:15:37.304Z,2.27
2018-07-13T12:18:05.191Z,2.80
2018-07-13T12:20:32.915Z,3.27
2018-07-13T12:23:00.560Z,2.20
2018-07-13T12:25:28.252Z,2.20
2018-07-13T12:27:55.842Z,2.08
2018-07-13T12:30:23.476Z,2.30
2018-07-13T12:32:53.132Z,2.40
2018-07-13T12:35:20.680Z,2.30
2018-07-13T12:37:48.241Z,2.20
2018-07-13T12:40:16.821Z,2.33
2018-07-13T12:42:44.439Z,2.05
2018-07-13T12:45:12.119Z,2.00
2018-07-13T12:47:39.688Z,2.62
2018-07-13T12:50:07.310Z,1.90
2018-07-13T12:52:34.844Z,2.40
2018-07-13T12:55:02.412Z,2.22
2018-07-13T12:57:30.003Z,2.50
2018-07-13T12:59:57.680Z,2.17
2018-07-13T13:02:25.237Z,2.65
2018-07-13T13:04:52.886Z,2.40
2018-07-13T13:07:20.532Z,2.33
2018-07-13T13:09:48.272Z,2.58
2018-07-13T13:12:15.984Z,2.92
2018-07-13T13:14:43.594Z,2.50
2018-07-13T13:17:11.257Z,2.65
2018-07-13T13:19:38.800Z,2.47
2018-07-13T13:22:06.708Z,2.92
2018-07-13T13:24:34.321Z,2.20
2018-07-13T13:27:01.931Z,2.65
2018-07-13T13:29:29.464Z,2.62
2018-07-13T13:31:57.065Z,1.82
2018-07-13T13:34:24.656Z,2.50
2018-07-13T13:36:52.505Z,2.45
2018-07-13T13:39:20.088Z,2.30
2018-07-13T13:41:47.629Z,2.30
2018-07-13T13:44:15.336Z,2.50
2018-07-13T13:46:43.000Z,2.40
2018-07-13T13:49:10.576Z,2.22
2018-07-13T13:51:38.147Z,2.25
2018-07-13T13:54:05.682Z,2.33
2018-07-13T13:56:33.243Z,2.27
2018-07-13T13:59:00.827Z,2.15
2018-07-13T14:01:28.347Z,2.10
2018-07-13T14:03:55.898Z,1.98
2018-07-13T14:06:23.519Z,2.30
2018-07-13T14:08:51.204Z,2.00
2018-07-13T14:11:18.868Z,2.65
2018-07-13T14:13:46.846Z,2.37
2018-07-13T14:16:14.486Z,2.42
2018-07-13T14:18:42.131Z,2.10
2018-07-13T14:21:09.694Z,2.08
2018-07-13T14:23:37.288Z,3.05
2018-07-13T14:26:05.439Z,2.40
2018-07-13T14:28:32.997Z,2.50
2018-07-13T14:31:06.271Z,2.25
2018-07-13T14:33:33.820Z,2.87
2018-07-13T14:36:01.439Z,2.90
2018-07-13T14:38:29.120Z,2.17
2018-07-13T14:40:56.815Z,2.60
2018-07-13T14:43:24.392Z,2.50
2018-07-13T14:45:52.456Z,2.20
2018-07-13T14:48:20.013Z,1.98
2018-07-13T14:50:47.547Z,2.17
2018-07-13T14:53:15.347Z,2.10
2018-07-13T14:55:42.944Z,2.45
2018-07-13T14:58:10.505Z,2.10
2018-07-13T15:00:38.087Z,2.40
2018-07-13T15:03:05.719Z,2.77
2018-07-13T15:05:33.297Z,2.47
2018-07-13T15:08:00.879Z,2.47
2018-07-13T15:10:28.428Z,2.27
2018-07-13T15:12:56.008Z,2.77
2018-07-13T15:15:23.580Z,2.60
2018-07-13T15:17:51.198Z,2.30
2018-07-13T15:20:18.786Z,2.00
2018-07-13T15:22:46.395Z,2.30
2018-07-13T15:25:13.976Z,2.50
2018-07-13T15:27:41.536Z,2.10
2018-07-13T15:30:09.164Z,2.42
2018-07-13T15:32:36.740Z,2.15
2018-07-13T15:35:04.506Z,2.08
2018-07-13T15:37:32.073Z,2.60
2018-07-13T15:39:59.724Z,2.20
2018-07-13T15:42:27.264Z,2.20
2018-07-13T15:44:58.939Z,2.30
2018-07-13T15:47:26.516Z,2.30
2018-07-13T15:49:54.079Z,2.20
2018-07-13T15:52:21.651Z,2.12
2018-07-13T15:54:49.280Z,2.00
2018-07-13T15:57:16.949Z,1.95
2018-07-13T15:59:44.559Z,1.90
2018-07-13T16:02:12.116Z,2.17
2018-07-13T16:04:39.666Z,2.12
2018-07-13T16:07:07.228Z,1.98
2018-07-13T16:09:48.035Z,2.20
2018-07-13T16:12:15.601Z,2.00
2018-07-13T16:14:43.238Z,1.92
2018-07-13T16:17:10.810Z,2.10
2018-07-13T16:19:38.555Z,2.30
2018-07-13T16:22:06.170Z,1.95
2018-07-13T16:24:33.728Z,2.10
2018-07-13T16:27:05.058Z,2.08
2018-07-13T16:29:32.675Z,2.00
2018-07-13T16:32:01.278Z,1.90
2018-07-13T16:34:28.967Z,2.17
2018-07-13T16:37:01.623Z,2.50
2018-07-13T16:39:29.269Z,1.62
2018-07-13T16:41:56.808Z,1.62
2018-07-13T16:44:24.375Z,2.00
2018-07-13T16:46:51.927Z,2.12
2018-07-13T16:49:19.504Z,2.00
2018-07-13T16:51:47.075Z,1.90
2018-07-13T16:54:18.452Z,1.95
2018-07-13T16:56:46.707Z,1.77
2018-07-13T16:59:14.315Z,1.90
2018-07-13T17:01:41.875Z,1.95
2018-07-13T17:04:09.484Z,1.70
2018-07-13T17:06:41.202Z,2.50
2018-07-13T17:09:10.678Z,2.47
2018-07-13T17:11:38.251Z,2.08
2018-07-13T17:14:05.965Z,1.80
2018-07-13T17:16:33.563Z,1.77
2018-07-13T17:19:01.100Z,2.12
2018-07-13T17:21:28.671Z,1.75
2018-07-13T17:23:56.210Z,1.95
2018-07-13T17:26:23.756Z,2.42
2018-07-13T17:28:51.322Z,2.37
2018-07-13T17:31:19.980Z,1.85
2018-07-13T17:33:47.566Z,1.98
2018-07-13T17:36:15.145Z,2.00
2018-07-13T17:38:42.704Z,1.93
2018-07-13T17:41:10.247Z,2.08
2018-07-13T17:43:37.803Z,2.13
2018-07-13T17:46:05.667Z,1.90
2018-07-13T17:48:33.219Z,1.90
2018-07-13T17:51:02.803Z,2.03
2018-07-13T17:53:33.337Z,1.90
2018-07-13T17:56:00.899Z,2.63
2018-07-13T17:58:28.464Z,1.97
2018-07-13T18:01:03.282Z,1.80
2018-07-13T18:03:30.756Z,2.17
2018-07-13T18:05:58.326Z,1.83
2018-07-13T18:08:25.943Z,2.13
2018-07-13T18:10:53.515Z,1.53
2018-07-13T18:13:21.103Z,1.73
2018-07-13T18:15:48.828Z,2.00
2018-07-13T18:18:16.417Z,2.40
2018-07-13T18:20:44.028Z,1.67
2018-07-13T18:23:11.672Z,1.87
2018-07-13T18:28:32.195Z,2.07
2018-07-13T18:31:16.365Z,2.27
2018-07-13T18:33:46.080Z,2.07
2018-07-13T18:36:15.789Z,2.23
2018-07-13T18:38:43.465Z,1.77
2018-07-13T18:41:11.736Z,1.77
2018-07-13T18:43:39.304Z,1.60
2018-07-13T18:46:07.228Z,1.37
2018-07-13T18:48:35.376Z,1.70
2018-07-13T18:51:03.100Z,1.80
2018-07-13T18:53:30.742Z,2.57
2018-07-13T18:55:58.333Z,1.67
2018-07-13T18:58:25.977Z,1.57
2018-07-13T19:01:03.885Z,1.80
2018-07-13T19:03:31.485Z,1.70
2018-07-13T19:05:59.081Z,1.93
2018-07-13T19:08:29.403Z,2.20
2018-07-13T19:10:57.235Z,1.90
2018-07-13T19:13:24.855Z,1.70
2018-07-13T19:15:52.447Z,1.50
2018-07-13T19:18:20.035Z,2.07
2018-07-13T19:20:47.664Z,1.67
2018-07-13T19:23:21.543Z,1.40
2018-07-13T19:25:49.637Z,2.00
2018-07-13T19:28:17.304Z,1.87
2018-07-13T19:30:44.978Z,1.90
2018-07-13T19:33:14.222Z,2.20
2018-07-13T19:35:42.043Z,2.33
2018-07-13T19:38:09.719Z,1.90
2018-07-13T19:40:37.295Z,2.93
2018-07-13T19:43:04.960Z,2.57
2018-07-13T19:45:32.570Z,1.90
2018-07-13T19:48:07.422Z,2.20
2018-07-13T19:50:35.151Z,1.80
2018-07-13T19:53:03.780Z,2.00
2018-07-13T19:55:38.120Z,2.20
2018-07-13T19:58:19.958Z,1.90
2018-07-13T20:00:47.527Z,2.20
2018-07-13T20:03:15.188Z,1.73
2018-07-13T20:05:42.867Z,1.20
2018-07-13T20:08:10.634Z,1.50
2018-07-13T20:10:38.240Z,1.70
2018-07-13T20:13:05.824Z,1.97
2018-07-13T20:15:33.544Z,2.00
2018-07-13T20:18:01.131Z,2.10
2018-07-13T20:20:28.732Z,2.00
2018-07-13T20:22:56.335Z,1.97
2018-07-13T20:25:24.114Z,2.00
2018-07-13T20:27:51.784Z,1.90
2018-07-13T20:30:19.336Z,1.83
2018-07-13T20:32:47.242Z,1.60
2018-07-13T20:35:14.816Z,1.97
2018-07-13T20:37:42.506Z,1.70
2018-07-13T20:40:10.291Z,1.60
2018-07-13T20:42:38.092Z,1.90
2018-07-13T20:45:05.886Z,1.80
2018-07-13T20:47:33.529Z,1.83
2018-07-13T20:50:01.044Z,1.13
2018-07-13T20:52:28.647Z,1.90
2018-07-13T20:54:56.223Z,1.90
2018-07-13T20:57:23.827Z,2.00
2018-07-13T20:59:51.389Z,1.80
2018-07-13T21:02:19.102Z,1.47
2018-07-13T21:04:46.672Z,1.70
2018-07-13T21:07:14.221Z,1.40
2018-07-13T21:09:41.869Z,1.43
2018-07-13T21:12:09.486Z,1.40
2018-07-13T21:14:37.099Z,1.27
2018-07-13T21:17:05.201Z,1.23
2018-07-13T21:19:33.746Z,2.70
2018-07-13T21:22:01.339Z,1.90
2018-07-13T21:24:29.072Z,1.70
2018-07-13T21:26:56.821Z,1.37
2018-07-13T21:29:24.378Z,1.60
2018-07-13T21:31:51.953Z,1.50
2018-07-13T21:34:19.493Z,1.50
2018-07-13T21:36:47.186Z,1.97
2018-07-13T21:39:14.760Z,1.27
2018-07-13T21:41:42.489Z,1.37
2018-07-13T21:44:12.159Z,1.70
2018-07-13T21:46:39.755Z,1.60
2018-07-13T21:49:09.400Z,1.60
2018-07-13T21:51:37.027Z,1.50
2018-07-13T21:54:05.056Z,1.60
2018-07-13T21:56:32.658Z,1.40
2018-07-13T21:59:00.235Z,1.87
2018-07-13T22:01:27.795Z,1.63
2018-07-13T22:03:55.479Z,1.70
2018-07-13T22:06:23.843Z,1.60
2018-07-13T22:08:52.032Z,2.60
2018-07-13T22:11:19.588Z,2.80
2018-07-13T22:13:48.521Z,2.30
2018-07-13T22:16:16.135Z,2.17
2018-07-13T22:18:43.733Z,1.70
2018-07-13T22:21:11.331Z,1.70
2018-07-13T22:23:38.884Z,1.80
2018-07-13T22:26:06.496Z,1.20
2018-07-13T22:28:34.051Z,1.17
2018-07-13T22:31:01.720Z,1.60
2018-07-13T22:33:29.447Z,1.40
2018-07-13T22:35:57.010Z,1.50
2018-07-13T22:38:24.521Z,1.40
2018-07-13T22:40:52.128Z,2.20
2018-07-13T22:43:19.699Z,2.17
2018-07-13T22:45:47.774Z,1.40
2018-07-13T22:48:15.405Z,1.70
2018-07-13T22:50:43.008Z,1.40
2018-07-13T22:53:10.585Z,1.50
2018-07-13T22:55:38.173Z,1.30
2018-07-13T22:58:05.756Z,1.70
2018-07-13T23:00:33.339Z,2.03
2018-07-13T23:03:00.923Z,1.60
2018-07-13T23:05:28.423Z,1.60
2018-07-13T23:07:56.009Z,1.27
2018-07-13T23:10:23.700Z,1.47
2018-07-13T23:12:51.416Z,2.10
2018-07-13T23:15:19.165Z,1.60
2018-07-13T23:17:46.977Z,1.50
2018-07-13T23:20:15.487Z,1.60
2018-07-13T23:22:43.191Z,1.40
2018-07-13T23:25:10.827Z,1.67
2018-07-13T23:27:38.496Z,1.20
2018-07-13T23:30:06.077Z,1.43
2018-07-13T23:32:33.626Z,1.60
2018-07-13T23:35:01.184Z,1.80
2018-07-13T23:37:28.764Z,1.60
2018-07-13T23:39:56.375Z,1.20
2018-07-13T23:42:23.985Z,1.23
2018-07-13T23:44:51.592Z,1.60
2018-07-13T23:47:19.187Z,1.17
2018-07-13T23:49:46.824Z,1.83
2018-07-13T23:52:14.515Z,1.23
2018-07-13T23:54:42.097Z,1.70
2018-07-13T23:57:09.727Z,2.50
2018-07-13T23:59:37.290Z,1.70
